createdAt,value
2019-02-02T00:02:07.617Z,17.60
2019-02-02T00:04:35.200Z,16.47
2019-02-02T00:07:02.943Z,17.20
2019-02-02T00:09:30.589Z,17.17
2019-02-02T00:11:58.192Z,18.33
2019-02-02T00:14:25.898Z,17.73
2019-02-02T00:16:53.692Z,18.63
2019-02-02T00:19:21.489Z,17.47
2019-02-02T00:21:49.669Z,15.73
2019-02-02T00:24:17.275Z,16.63
2019-02-02T00:26:45.168Z,16.60
2019-02-02T00:29:12.749Z,16.17
2019-02-02T00:31:40.429Z,16.23
2019-02-02T00:34:07.932Z,16.23
2019-02-02T00:36:36.436Z,15.37
2019-02-02T00:39:08.513Z,15.50
2019-02-02T00:41:37.529Z,16.43
2019-02-02T00:44:05.720Z,15.20
2019-02-02T00:46:33.369Z,16.50
2019-02-02T00:49:01.044Z,16.93
2019-02-02T00:51:28.684Z,16.63
2019-02-02T00:53:56.300Z,16.73
2019-02-02T00:56:23.996Z,15.70
2019-02-02T00:58:51.624Z,16.23
2019-02-02T01:01:19.254Z,17.00
2019-02-02T01:03:48.154Z,17.27
2019-02-02T01:06:15.680Z,16.80
2019-02-02T01:08:43.361Z,15.93
2019-02-02T01:11:11.050Z,16.07
2019-02-02T01:13:38.667Z,16.87
2019-02-02T01:16:06.348Z,19.40
2019-02-02T01:18:33.964Z,19.20
2019-02-02T01:21:01.665Z,17.60
2019-02-02T01:23:29.414Z,16.73
2019-02-02T01:25:57.117Z,18.30
2019-02-02T01:28:24.919Z,17.37
2019-02-02T01:30:52.539Z,17.13
2019-02-02T01:33:20.130Z,18.30
2019-02-02T01:35:47.869Z,19.00
2019-02-02T01:38:15.461Z,17.67
2019-02-02T01:40:43.081Z,18.30
2019-02-02T01:43:10.703Z,17.47
2019-02-02T01:45:38.653Z,17.30
2019-02-02T01:48:06.281Z,17.40
2019-02-02T01:50:33.891Z,17.83
2019-02-02T01:53:01.567Z,17.40
2019-02-02T01:55:29.168Z,17.67
2019-02-02T01:57:56.952Z,17.93
2019-02-02T02:00:26.856Z,17.10
2019-02-02T02:02:54.610Z,17.23
2019-02-02T02:05:22.491Z,16.83
2019-02-02T02:07:50.092Z,16.83
2019-02-02T02:10:17.872Z,17.07
2019-02-02T02:12:45.572Z,17.07
2019-02-02T02:15:14.444Z,17.03
2019-02-02T02:17:42.562Z,17.10
2019-02-02T02:20:10.843Z,17.53
2019-02-02T02:22:41.053Z,16.20
2019-02-02T02:25:12.927Z,17.27
2019-02-02T02:27:40.595Z,18.07
2019-02-02T02:30:11.002Z,17.77
2019-02-02T02:32:38.592Z,17.90
2019-02-02T02:35:06.382Z,18.83
2019-02-02T02:37:34.004Z,21.27
2019-02-02T02:40:01.816Z,22.77
2019-02-02T02:42:29.499Z,22.13
2019-02-02T02:44:57.344Z,21.10
2019-02-02T02:47:25.037Z,22.80
2019-02-02T02:49:52.667Z,23.67
2019-02-02T02:52:20.247Z,22.80
2019-02-02T02:54:47.877Z,23.23
2019-02-02T02:57:15.480Z,23.93
2019-02-02T02:59:43.075Z,24.33
2019-02-02T03:02:10.730Z,24.43
2019-02-02T03:04:38.314Z,24.53
2019-02-02T03:07:05.950Z,25.97
2019-02-02T03:09:33.549Z,24.50
2019-02-02T03:12:01.163Z,27.43
2019-02-02T03:14:28.873Z,24.40
2019-02-02T03:16:56.629Z,23.57
2019-02-02T03:19:24.204Z,27.27
2019-02-02T03:21:51.817Z,26.40
2019-02-02T03:24:19.406Z,25.23
2019-02-02T03:26:47.000Z,24.87
2019-02-02T03:29:14.615Z,24.73
2019-02-02T03:31:42.227Z,24.40
2019-02-02T03:34:09.814Z,22.97
2019-02-02T03:36:37.428Z,24.37
2019-02-02T03:39:10.413Z,23.20
2019-02-02T03:41:38.034Z,24.27
2019-02-02T03:44:05.738Z,24.27
2019-02-02T03:46:33.316Z,24.00
2019-02-02T03:49:00.984Z,25.03
2019-02-02T03:51:28.747Z,23.17
2019-02-02T03:54:07.961Z,23.83
2019-02-02T03:56:25.775Z,21.80
2019-02-02T03:59:05.675Z,23.03
2019-02-02T04:01:22.922Z,22.83
2019-02-02T04:03:50.689Z,23.70
2019-02-02T04:06:18.291Z,25.40
2019-02-02T04:08:45.871Z,25.27
2019-02-02T04:11:13.485Z,22.77
2019-02-02T04:13:41.092Z,23.27
2019-02-02T04:16:08.698Z,24.10
2019-02-02T04:18:36.295Z,26.17
2019-02-02T04:21:04.144Z,24.63
2019-02-02T04:23:31.839Z,25.77
2019-02-02T04:25:59.683Z,26.97
2019-02-02T04:28:27.492Z,29.00
2019-02-02T04:30:55.075Z,28.67
2019-02-02T04:33:23.152Z,29.53
2019-02-02T04:35:50.836Z,31.93
2019-02-02T04:38:18.427Z,28.30
2019-02-02T04:40:46.039Z,28.30
2019-02-02T04:43:13.887Z,29.33
2019-02-02T04:45:41.498Z,27.73
2019-02-02T04:48:09.135Z,28.17
2019-02-02T04:50:36.740Z,28.33
2019-02-02T04:53:04.316Z,26.87
2019-02-02T04:55:31.960Z,25.90
2019-02-02T04:57:59.587Z,26.57
2019-02-02T05:00:27.201Z,27.10
2019-02-02T05:02:54.799Z,25.73
2019-02-02T05:05:22.484Z,25.17
2019-02-02T05:07:50.135Z,25.03
2019-02-02T05:10:19.148Z,26.03
2019-02-02T05:12:46.841Z,24.80
2019-02-02T05:15:14.443Z,24.13
2019-02-02T05:17:42.795Z,23.97
2019-02-02T05:20:11.479Z,22.50
2019-02-02T05:22:39.512Z,23.13
2019-02-02T05:25:07.716Z,23.50
2019-02-02T05:27:35.332Z,24.03
2019-02-02T05:30:06.184Z,22.43
2019-02-02T05:32:33.776Z,22.90
2019-02-02T05:35:01.477Z,24.40
2019-02-02T05:37:29.192Z,23.97
2019-02-02T05:39:56.800Z,23.93
2019-02-02T05:42:24.376Z,23.50
2019-02-02T05:44:51.988Z,23.57
2019-02-02T05:47:19.875Z,24.83
2019-02-02T05:49:49.605Z,25.13
2019-02-02T05:52:17.131Z,27.07
2019-02-02T05:54:47.088Z,25.70
2019-02-02T05:57:14.684Z,25.27
2019-02-02T05:59:52.274Z,24.03
2019-02-02T06:02:11.893Z,25.20
2019-02-02T06:04:39.769Z,26.00
2019-02-02T06:07:07.372Z,26.17
2019-02-02T06:09:35.023Z,26.80
2019-02-02T06:12:02.757Z,26.07
2019-02-02T06:14:30.379Z,26.40
2019-02-02T06:16:58.025Z,25.97
2019-02-02T06:19:25.686Z,26.30
2019-02-02T06:21:53.294Z,26.83
2019-02-02T06:24:20.904Z,27.30
2019-02-02T06:26:48.537Z,25.83
2019-02-02T06:29:16.152Z,26.73
2019-02-02T06:31:45.982Z,26.03
2019-02-02T06:34:13.594Z,28.50
2019-02-02T06:36:41.202Z,28.67
2019-02-02T06:39:08.882Z,28.70
2019-02-02T06:41:36.619Z,28.63
2019-02-02T06:44:04.644Z,30.37
2019-02-02T06:46:43.021Z,31.23
2019-02-02T06:49:02.620Z,31.47
2019-02-02T06:51:30.279Z,31.77
2019-02-02T06:53:57.902Z,31.77
2019-02-02T06:56:25.509Z,29.47
2019-02-02T06:58:53.380Z,30.87
2019-02-02T07:01:20.988Z,30.90
2019-02-02T07:03:49.958Z,31.33
2019-02-02T07:06:17.545Z,30.33
2019-02-02T07:08:45.182Z,30.27
2019-02-02T07:11:13.068Z,30.80
2019-02-02T07:13:40.589Z,30.93
2019-02-02T07:16:08.239Z,32.63
2019-02-02T07:18:35.916Z,33.47
2019-02-02T07:21:03.677Z,33.90
2019-02-02T07:23:31.316Z,36.00
2019-02-02T07:25:58.931Z,33.37
2019-02-02T07:28:26.528Z,30.80
2019-02-02T07:30:54.167Z,32.13
2019-02-02T07:33:22.348Z,32.37
2019-02-02T07:35:49.968Z,31.93
2019-02-02T07:38:17.579Z,34.63
2019-02-02T07:40:45.214Z,35.83
2019-02-02T07:43:13.476Z,36.77
2019-02-02T07:45:41.149Z,39.27
2019-02-02T07:48:08.736Z,39.80
2019-02-02T07:50:36.395Z,38.27
2019-02-02T07:53:04.195Z,39.37
2019-02-02T07:55:31.901Z,41.17
2019-02-02T07:57:59.622Z,39.93
2019-02-02T08:00:39.762Z,40.37
2019-02-02T08:02:58.759Z,41.07
2019-02-02T08:05:26.364Z,40.70
2019-02-02T08:07:53.972Z,43.03
2019-02-02T08:10:21.746Z,42.70
2019-02-02T08:12:49.320Z,44.63
2019-02-02T08:15:19.504Z,41.13
2019-02-02T08:17:47.208Z,42.67
2019-02-02T08:20:14.787Z,41.93
2019-02-02T08:22:42.366Z,40.87
2019-02-02T08:25:10.916Z,40.60
2019-02-02T08:27:38.680Z,39.93
2019-02-02T08:30:12.148Z,41.90
2019-02-02T08:32:39.856Z,42.17
2019-02-02T08:35:07.620Z,43.40
2019-02-02T08:37:35.596Z,41.43
2019-02-02T08:40:04.077Z,42.03
2019-02-02T08:42:31.748Z,41.83
2019-02-02T08:44:59.401Z,44.70
2019-02-02T08:47:26.964Z,47.10
2019-02-02T08:49:55.026Z,44.60
2019-02-02T08:52:22.622Z,46.47
2019-02-02T08:54:50.264Z,49.23
2019-02-02T08:57:19.165Z,49.93
2019-02-02T08:59:46.734Z,48.17
2019-02-02T09:02:14.323Z,50.70
2019-02-02T09:04:41.969Z,46.73
2019-02-02T09:07:09.585Z,50.90
2019-02-02T09:09:37.245Z,50.87
2019-02-02T09:12:04.973Z,50.03
2019-02-02T09:14:32.564Z,50.10
2019-02-02T09:17:00.529Z,46.70
2019-02-02T09:19:28.464Z,44.53
2019-02-02T09:21:56.044Z,44.50
2019-02-02T09:24:23.660Z,43.10
2019-02-02T09:26:51.292Z,42.33
2019-02-02T09:29:18.872Z,42.73
2019-02-02T09:31:46.669Z,39.80
2019-02-02T09:34:14.250Z,42.27
2019-02-02T09:36:46.042Z,45.27
2019-02-02T09:39:13.628Z,49.17
2019-02-02T09:41:41.289Z,46.07
2019-02-02T09:44:09.024Z,44.60
2019-02-02T09:46:36.792Z,44.03
2019-02-02T09:49:04.809Z,41.37
2019-02-02T09:51:32.516Z,39.47
2019-02-02T09:54:00.084Z,38.53
2019-02-02T09:56:27.660Z,35.60
2019-02-02T09:58:55.267Z,34.07
2019-02-02T10:01:27.872Z,36.73
2019-02-02T10:03:52.552Z,30.47
2019-02-02T10:06:20.147Z,24.40
2019-02-02T10:08:48.063Z,27.13
2019-02-02T10:11:15.671Z,27.00
2019-02-02T10:13:43.304Z,22.80
2019-02-02T10:16:10.940Z,21.93
2019-02-02T10:18:38.827Z,25.43
2019-02-02T10:21:06.424Z,25.03
2019-02-02T10:23:34.097Z,28.73
2019-02-02T10:26:03.277Z,29.27
2019-02-02T10:28:30.944Z,28.80
2019-02-02T10:30:58.988Z,29.80
2019-02-02T10:33:26.676Z,27.50
2019-02-02T10:35:54.261Z,31.40
2019-02-02T10:38:22.057Z,23.83
2019-02-02T10:40:50.007Z,26.20
2019-02-02T10:43:18.380Z,22.63
2019-02-02T10:45:45.992Z,25.07
2019-02-02T10:48:14.376Z,20.87
2019-02-02T10:50:42.011Z,15.30
2019-02-02T10:53:09.681Z,16.43
2019-02-02T10:55:37.302Z,13.53
2019-02-02T10:58:07.168Z,11.63
2019-02-02T11:00:36.656Z,11.33
2019-02-02T11:03:04.612Z,8.70
2019-02-02T11:05:32.375Z,9.17
2019-02-02T11:08:00.459Z,9.03
2019-02-02T11:10:29.452Z,10.50
2019-02-02T11:12:57.187Z,11.83
2019-02-02T11:15:25.076Z,11.70
2019-02-02T11:17:52.994Z,14.20
2019-02-02T11:20:22.888Z,15.03
2019-02-02T11:22:50.417Z,20.17
2019-02-02T11:25:18.491Z,17.90
2019-02-02T11:27:46.207Z,20.83
2019-02-02T11:30:15.339Z,22.77
2019-02-02T11:32:45.332Z,22.43
2019-02-02T11:35:13.677Z,24.00
2019-02-02T11:37:41.613Z,24.53
2019-02-02T11:40:14.848Z,25.97
2019-02-02T11:42:42.696Z,25.10
2019-02-02T11:45:10.731Z,24.97
2019-02-02T11:47:38.441Z,24.87
2019-02-02T11:50:07.368Z,25.73
2019-02-02T11:52:35.156Z,23.30
2019-02-02T11:55:03.275Z,23.10
2019-02-02T11:57:31.271Z,22.93
2019-02-02T12:00:00.227Z,23.50
2019-02-02T12:02:28.126Z,21.57
2019-02-02T12:04:55.806Z,20.50
2019-02-02T12:07:23.407Z,20.87
2019-02-02T12:09:51.267Z,21.43
2019-02-02T12:12:18.859Z,21.60
2019-02-02T12:14:46.441Z,19.83
2019-02-02T12:17:15.236Z,21.07
2019-02-02T12:19:42.872Z,20.03
2019-02-02T12:22:10.531Z,19.90
2019-02-02T12:24:38.254Z,20.13
2019-02-02T12:27:05.895Z,19.70
2019-02-02T12:29:33.513Z,19.77
2019-02-02T12:32:01.430Z,18.37
2019-02-02T12:34:29.053Z,18.20
2019-02-02T12:36:56.627Z,18.90
2019-02-02T12:39:25.331Z,21.10
2019-02-02T12:41:52.956Z,24.40
2019-02-02T12:44:21.511Z,20.83
2019-02-02T12:46:49.135Z,20.07
2019-02-02T12:49:17.901Z,17.50
2019-02-02T12:51:45.782Z,17.37
2019-02-02T12:54:13.384Z,14.80
2019-02-02T12:56:41.036Z,12.50
2019-02-02T12:59:08.616Z,15.60
2019-02-02T13:01:36.449Z,13.17
2019-02-02T13:04:05.505Z,10.40
2019-02-02T13:06:35.800Z,10.20
2019-02-02T13:09:06.586Z,10.90
2019-02-02T13:11:34.369Z,10.23
2019-02-02T13:14:03.516Z,10.13
2019-02-02T13:16:31.112Z,9.47
2019-02-02T13:18:58.873Z,9.93
2019-02-02T13:21:26.483Z,11.43
2019-02-02T13:23:54.084Z,10.33
2019-02-02T13:26:21.687Z,11.07
2019-02-02T13:28:49.383Z,10.40
2019-02-02T13:31:21.021Z,12.50
2019-02-02T13:33:46.724Z,13.97
2019-02-02T13:36:14.405Z,12.87
2019-02-02T13:38:45.144Z,12.00
2019-02-02T13:41:17.394Z,12.10
2019-02-02T13:43:45.941Z,14.60
2019-02-02T13:46:13.537Z,13.17
2019-02-02T13:48:42.547Z,37.50
2019-02-02T13:51:10.152Z,24.43
2019-02-02T13:53:37.762Z,12.80
2019-02-02T13:56:05.368Z,13.57
2019-02-02T13:58:33.260Z,14.20
2019-02-02T14:01:00.892Z,13.47
2019-02-02T14:03:28.483Z,12.37
2019-02-02T14:05:56.140Z,11.80
2019-02-02T14:08:23.714Z,12.15
2019-02-02T14:10:51.287Z,12.77
2019-02-02T14:13:18.900Z,12.53
2019-02-02T14:15:46.478Z,12.78
2019-02-02T14:18:14.061Z,12.90
2019-02-02T14:20:41.752Z,13.38
2019-02-02T14:23:09.338Z,13.65
2019-02-02T14:25:36.974Z,13.68
2019-02-02T14:28:04.620Z,12.68
2019-02-02T14:30:32.373Z,12.45
2019-02-02T14:32:59.953Z,12.68
2019-02-02T14:35:29.607Z,11.80
2019-02-02T14:37:57.093Z,11.05
2019-02-02T14:40:24.771Z,11.10
2019-02-02T14:42:52.437Z,11.80
2019-02-02T14:45:20.880Z,12.37
2019-02-02T14:47:48.598Z,12.13
2019-02-02T14:50:19.147Z,12.97
2019-02-02T14:52:46.888Z,12.40
2019-02-02T14:55:17.234Z,13.10
2019-02-02T14:57:50.923Z,12.87
2019-02-02T15:00:26.212Z,13.00
2019-02-02T15:02:53.926Z,13.00
2019-02-02T15:05:21.853Z,12.60
2019-02-02T15:07:49.836Z,13.03
2019-02-02T15:10:18.556Z,12.40
2019-02-02T15:12:46.296Z,12.27
2019-02-02T15:15:14.338Z,12.20
2019-02-02T15:17:44.619Z,11.97
2019-02-02T15:20:39.125Z,11.97
2019-02-02T15:23:08.396Z,12.60
2019-02-02T15:25:36.087Z,13.10
2019-02-02T15:28:04.290Z,13.50
2019-02-02T15:30:32.108Z,15.13
2019-02-02T15:32:59.863Z,15.37
2019-02-02T15:35:27.557Z,17.73
2019-02-02T15:37:55.125Z,20.40
2019-02-02T15:40:22.762Z,19.47
2019-02-02T15:42:50.345Z,19.63
2019-02-02T15:45:22.329Z,20.53
2019-02-02T15:47:50.060Z,20.73
2019-02-02T15:50:17.668Z,21.53
2019-02-02T15:52:45.379Z,22.30
2019-02-02T15:55:15.189Z,22.73
2019-02-02T15:57:42.942Z,23.07
2019-02-02T16:00:14.380Z,22.83
2019-02-02T16:02:42.096Z,21.97
2019-02-02T16:05:11.322Z,21.37
2019-02-02T16:07:38.956Z,22.30
2019-02-02T16:10:08.996Z,22.80
2019-02-02T16:12:36.664Z,21.77
2019-02-02T16:15:05.541Z,22.13
2019-02-02T16:17:33.231Z,22.17
2019-02-02T16:20:00.779Z,23.50
2019-02-02T16:22:28.435Z,22.60
2019-02-02T16:24:56.031Z,23.10
2019-02-02T16:27:23.746Z,23.10
2019-02-02T16:29:51.315Z,22.63
2019-02-02T16:32:19.967Z,23.83
2019-02-02T16:34:47.580Z,23.53
2019-02-02T16:37:15.216Z,23.53
2019-02-02T16:39:42.859Z,23.37
2019-02-02T16:42:10.464Z,25.03
2019-02-02T16:44:38.203Z,24.47
2019-02-02T16:47:05.920Z,23.47
2019-02-02T16:49:33.632Z,24.17
2019-02-02T16:52:01.394Z,23.50
2019-02-02T16:54:28.917Z,23.57
2019-02-02T16:56:56.528Z,23.73
2019-02-02T16:59:24.154Z,23.43
2019-02-02T17:01:51.814Z,23.93
2019-02-02T17:04:19.460Z,25.27
2019-02-02T17:06:47.095Z,25.17
2019-02-02T17:09:14.878Z,23.63
2019-02-02T17:11:42.578Z,24.87
2019-02-02T17:14:10.323Z,24.17
2019-02-02T17:16:37.982Z,25.43
2019-02-02T17:19:05.922Z,24.07
2019-02-02T17:21:33.620Z,24.20
2019-02-02T17:24:01.357Z,25.90
2019-02-02T17:26:28.966Z,24.30
2019-02-02T17:28:56.575Z,24.53
2019-02-02T17:31:24.395Z,26.80
2019-02-02T17:33:52.023Z,25.10
2019-02-02T17:36:19.754Z,26.23
2019-02-02T17:38:47.459Z,28.53
2019-02-02T17:41:15.164Z,27.37
2019-02-02T17:43:42.935Z,28.33
2019-02-02T17:46:10.726Z,27.37
2019-02-02T17:48:38.766Z,27.83
2019-02-02T17:51:06.526Z,27.83
2019-02-02T17:53:34.267Z,27.43
2019-02-02T17:56:02.296Z,28.43
2019-02-02T17:59:20.139Z,27.57
2019-02-02T18:02:00.128Z,27.50
2019-02-02T18:04:43.137Z,27.93
2019-02-02T18:07:22.451Z,26.97
2019-02-02T18:10:02.874Z,24.87
2019-02-02T18:12:42.479Z,25.83
2019-02-02T18:15:22.676Z,24.23
2019-02-02T18:20:44.781Z,25.57
2019-02-02T18:23:25.075Z,24.40
2019-02-02T18:26:05.446Z,24.63
2019-02-02T18:28:46.595Z,25.43
2019-02-02T18:31:26.820Z,25.30
2019-02-02T18:34:09.905Z,25.17
2019-02-02T18:36:37.828Z,24.93
2019-02-02T18:39:24.906Z,26.00
2019-02-02T18:42:12.081Z,24.90
2019-02-02T18:44:51.841Z,23.77
2019-02-02T18:47:32.123Z,24.87
2019-02-02T18:50:12.159Z,25.23
2019-02-02T18:52:52.179Z,24.50
2019-02-02T18:55:32.746Z,25.10
2019-02-02T18:58:14.254Z,25.53
2019-02-02T19:00:55.348Z,25.07
2019-02-02T19:03:36.280Z,27.13
2019-02-02T19:06:17.022Z,26.00
2019-02-02T19:08:57.366Z,27.30
2019-02-02T19:11:37.715Z,26.73
2019-02-02T19:14:18.718Z,27.07
2019-02-02T19:17:01.081Z,26.50
2019-02-02T19:19:40.547Z,25.17
2019-02-02T19:22:08.647Z,26.70
2019-02-02T19:24:55.626Z,27.00
2019-02-02T19:27:35.918Z,27.03
2019-02-02T19:30:15.804Z,27.40
2019-02-02T19:32:55.971Z,27.93
2019-02-02T19:35:36.014Z,27.60
2019-02-02T19:38:16.235Z,27.10
2019-02-02T19:40:56.383Z,28.53
2019-02-02T19:46:36.051Z,27.50
2019-02-02T19:49:15.912Z,27.47
2019-02-02T19:51:56.802Z,27.13
2019-02-02T19:54:37.554Z,27.70
2019-02-02T19:57:18.179Z,27.53
2019-02-02T19:59:58.213Z,27.63
2019-02-02T20:02:38.291Z,27.20
2019-02-02T20:05:27.996Z,26.50
2019-02-02T20:08:00.634Z,28.43
2019-02-02T20:10:40.689Z,27.33
2019-02-02T20:13:20.802Z,26.90
2019-02-02T20:16:03.925Z,25.87
2019-02-02T20:18:43.008Z,26.13
2019-02-02T20:21:23.000Z,27.67
2019-02-02T20:24:03.208Z,28.87
2019-02-02T20:26:43.349Z,28.50
2019-02-02T20:29:24.938Z,26.77
2019-02-02T20:32:04.592Z,28.07
2019-02-02T20:34:45.159Z,28.93
2019-02-02T20:37:24.757Z,27.93
2019-02-02T20:40:04.973Z,27.57
2019-02-02T20:42:45.004Z,27.87
2019-02-02T20:45:25.081Z,28.53
2019-02-02T20:48:05.181Z,27.80
2019-02-02T20:50:45.296Z,27.30
2019-02-02T20:53:25.756Z,27.13
2019-02-02T20:56:05.545Z,26.17
2019-02-02T20:58:45.761Z,29.27
2019-02-02T21:01:25.850Z,27.03
2019-02-02T21:04:05.953Z,29.40
2019-02-02T21:06:46.308Z,29.33
2019-02-02T21:09:26.429Z,29.00
2019-02-02T21:12:06.712Z,29.33
2019-02-02T21:14:46.893Z,28.37
2019-02-02T21:17:27.344Z,29.30
2019-02-02T21:20:07.554Z,28.23
2019-02-02T21:22:47.716Z,29.10
2019-02-02T21:25:27.761Z,28.67
2019-02-02T21:28:08.061Z,27.77
2019-02-02T21:30:47.952Z,28.47
2019-02-02T21:33:27.971Z,29.53
2019-02-02T21:36:08.133Z,29.23
2019-02-02T21:38:48.496Z,30.43
2019-02-02T21:41:29.508Z,28.90
2019-02-02T21:44:09.724Z,30.30
2019-02-02T21:46:49.638Z,30.67
2019-02-02T21:49:29.804Z,29.03
2019-02-02T21:52:09.908Z,32.33
2019-02-02T21:54:49.891Z,31.20
2019-02-02T21:57:30.064Z,29.60
2019-02-02T22:00:10.344Z,30.53
2019-02-02T22:02:50.574Z,31.07
2019-02-02T22:05:30.695Z,31.80
2019-02-02T22:08:10.903Z,31.07
2019-02-02T22:10:38.848Z,30.73
2019-02-02T22:13:25.898Z,30.40
2019-02-02T22:16:12.902Z,31.33
2019-02-02T22:18:53.281Z,32.97
2019-02-02T22:21:33.502Z,34.90
2019-02-02T22:24:13.760Z,39.07
2019-02-02T22:26:53.568Z,37.40
2019-02-02T22:29:34.000Z,38.30
2019-02-02T22:32:14.129Z,37.30
2019-02-02T22:34:54.313Z,39.07
2019-02-02T22:37:34.503Z,39.07
2019-02-02T22:40:14.545Z,39.43
2019-02-02T22:42:54.992Z,37.20
2019-02-02T22:45:35.172Z,38.97
2019-02-02T22:48:15.520Z,37.93
2019-02-02T22:50:55.620Z,37.07
2019-02-02T22:53:35.794Z,36.20
2019-02-02T22:56:16.072Z,37.07
2019-02-02T22:58:43.740Z,36.73
2019-02-02T23:01:50.182Z,36.73
2019-02-02T23:04:30.632Z,37.93
2019-02-02T23:07:10.807Z,39.40
2019-02-02T23:09:50.866Z,39.87
2019-02-02T23:12:31.340Z,39.37
2019-02-02T23:15:11.480Z,42.83
2019-02-02T23:17:51.410Z,40.77
2019-02-02T23:20:31.531Z,41.73
2019-02-02T23:23:12.032Z,40.43
2019-02-02T23:25:40.128Z,41.23
2019-02-02T23:28:27.150Z,39.37
2019-02-02T23:31:07.596Z,40.13
2019-02-02T23:33:47.680Z,39.20
2019-02-02T23:36:28.100Z,37.40
2019-02-02T23:39:08.506Z,37.83
2019-02-02T23:41:48.528Z,35.63
2019-02-02T23:44:28.710Z,37.43
2019-02-02T23:47:08.828Z,37.33
2019-02-02T23:49:48.972Z,38.27
2019-02-02T23:52:29.188Z,37.43
2019-02-02T23:55:09.487Z,37.63
2019-02-02T23:57:49.417Z,35.83
